Dauntless Aviation
Greetings, Guest! To participate, [sign up for a free account] or [log in]
Airports Europe Germany
EDSW

Altdorf-Wallburg

Altdorf-Wallburg, GERMANY

Airport Info
Edit

Location

Latitude / Longitude: 48°16'11"N / 7°50'31"E
  48°16.188'N / 7°50.532'E
  48.2698 / 7.8422
Satellite photo at:
Airport distance calculator
From:
Weather Reports

METAR

EDTL
5.8nm NW
EDTL 241650Z 08004KT 030V100 CAVOK 27/13 Q1011
LFST
18.2nm NW
LFST 241700Z AUTO 02007KT 340V050 9999 NSC 28/11 Q1011
EDSB
32.3nm N
EDSB 241650Z 36007KT CAVOK 27/10 Q1011

TAF

EDTL
5.8nm NW
TAF EDTL 241400Z 2415/2424 01008KT CAVOK PROB30 TEMPO 2415/2420 4500 TSRA SCT040CB
LFST
18.2nm NW
TAF LFST 241100Z 2412/2512 36005KT CAVOK TEMPO 2414/2419 05010KT FEW055TCU
EDSB
32.3nm N
TAF EDSB 241100Z 2412/2512 03009KT CAVOK PROB30 TEMPO 2414/2420 4500 TSRA SCT040CB BECMG 2419/2421 03004KT
Safelog

 

Dauntless Aviation

© 2007-2014 Dauntless Aviation, all rights reserved
Information provided via PilotNav comes from a variety of official and unofficial data sources. As errors are possible, do not use PilotNav for primary flight planning purposes. Verify any information that you receive via PilotNav with current and canonical charts and other official documents. The material in this database is subject to database copyrights held by Dauntless Aviation and may not be copied without the express permission of Dauntless Aviation - licenses for use of part of all of this data are available for purchase; enquire via the Dauntless Aviation helpdesk. A number of mechanisms and markers exist in the database to protect against and identify infringement / copyright. Automated queries against this website are stictly prohibited, and all activity is logged and analyzed.